createdAt,value
2019-03-03T00:00:10.483Z,5.03
2019-03-03T00:02:39.182Z,4.62
2019-03-03T00:05:08.215Z,5.03
2019-03-03T00:07:37.330Z,4.55
2019-03-03T00:10:08.614Z,4.08
2019-03-03T00:12:37.350Z,4.83
2019-03-03T00:15:06.790Z,4.80
2019-03-03T00:17:35.520Z,5.12
2019-03-03T00:20:04.642Z,4.83
2019-03-03T00:22:33.450Z,5.27
2019-03-03T00:25:02.151Z,4.45
2019-03-03T00:27:30.874Z,4.87
2019-03-03T00:29:59.681Z,4.25
2019-03-03T00:32:28.430Z,4.92
2019-03-03T00:34:57.135Z,4.58
2019-03-03T00:37:57.268Z,4.60
2019-03-03T00:40:32.781Z,6.28
2019-03-03T00:43:26.970Z,4.17
2019-03-03T00:46:30.184Z,4.60
2019-03-03T00:49:18.189Z,4.45
2019-03-03T00:52:00.050Z,4.28
2019-03-03T00:54:57.006Z,4.55
2019-03-03T00:57:43.471Z,4.67
2019-03-03T01:00:29.926Z,4.20
2019-03-03T01:03:07.267Z,3.92
2019-03-03T01:05:58.071Z,4.28
2019-03-03T01:08:54.442Z,3.67
2019-03-03T01:11:45.350Z,3.65
2019-03-03T01:14:22.319Z,3.45
2019-03-03T01:17:03.115Z,2.70
2019-03-03T01:19:50.954Z,4.85
2019-03-03T01:22:38.758Z,4.28
2019-03-03T01:25:07.546Z,4.30
2019-03-03T01:27:36.278Z,3.87
2019-03-03T01:30:08.010Z,3.83
2019-03-03T01:32:37.603Z,3.75
2019-03-03T01:35:06.990Z,4.10
2019-03-03T01:37:36.579Z,3.58
2019-03-03T01:40:06.427Z,4.35
2019-03-03T01:42:35.235Z,4.00
2019-03-03T01:45:04.118Z,3.52
2019-03-03T01:47:36.055Z,4.33
2019-03-03T01:50:05.130Z,3.83
2019-03-03T01:52:34.770Z,4.12
2019-03-03T01:55:03.583Z,4.05
2019-03-03T01:57:32.406Z,4.87
2019-03-03T02:00:01.253Z,4.70
2019-03-03T02:02:30.034Z,4.08
2019-03-03T02:04:58.854Z,5.03
2019-03-03T02:07:27.644Z,4.22
2019-03-03T02:09:56.373Z,3.80
2019-03-03T02:12:25.095Z,4.17
2019-03-03T02:14:55.210Z,4.05
2019-03-03T02:17:24.049Z,4.65
2019-03-03T02:19:52.831Z,4.42
2019-03-03T02:22:21.567Z,3.87
2019-03-03T02:24:50.314Z,4.22
2019-03-03T02:27:19.009Z,4.42
2019-03-03T02:29:47.792Z,4.60
2019-03-03T02:32:16.517Z,5.80
2019-03-03T02:34:45.231Z,3.90
2019-03-03T02:37:13.981Z,4.20
2019-03-03T02:39:42.712Z,5.27
2019-03-03T02:42:11.571Z,5.22
2019-03-03T02:44:40.322Z,5.03
2019-03-03T02:47:09.078Z,5.40
2019-03-03T02:49:38.979Z,5.37
2019-03-03T02:52:07.994Z,5.95
2019-03-03T02:54:36.735Z,5.45
2019-03-03T02:57:05.597Z,5.10
2019-03-03T02:59:34.743Z,5.62
2019-03-03T03:02:07.227Z,7.47
2019-03-03T03:04:35.966Z,5.53
2019-03-03T03:07:33.046Z,5.97
2019-03-03T03:10:06.766Z,6.62
2019-03-03T03:12:55.576Z,6.78
2019-03-03T03:15:45.597Z,7.67
2019-03-03T03:18:20.039Z,8.38
2019-03-03T03:21:02.648Z,8.60
2019-03-03T03:23:43.314Z,7.15
2019-03-03T03:26:30.010Z,8.35
2019-03-03T03:29:12.260Z,8.93
2019-03-03T03:31:59.900Z,5.65
2019-03-03T03:35:03.141Z,7.37
2019-03-03T03:37:37.967Z,8.78
2019-03-03T03:40:36.358Z,7.22
2019-03-03T03:43:12.006Z,8.43
2019-03-03T03:46:08.722Z,9.85
2019-03-03T03:48:55.438Z,9.83
2019-03-03T03:51:42.254Z,9.88
2019-03-03T03:55:01.410Z,10.18
2019-03-03T03:57:46.103Z,7.22
2019-03-03T04:00:34.207Z,8.68
2019-03-03T04:03:26.661Z,6.92
2019-03-03T04:06:15.038Z,6.53
2019-03-03T04:08:57.389Z,9.43
2019-03-03T04:11:38.110Z,9.95
2019-03-03T04:14:12.221Z,8.88
2019-03-03T04:16:53.715Z,9.30
2019-03-03T04:19:27.593Z,10.43
2019-03-03T04:22:25.242Z,11.35
2019-03-03T04:25:10.350Z,11.43
2019-03-03T04:27:47.054Z,9.63
2019-03-03T04:30:34.933Z,10.03
2019-03-03T04:33:22.784Z,9.48
2019-03-03T04:36:09.454Z,10.93
2019-03-03T04:38:57.699Z,10.43
2019-03-03T04:41:42.800Z,10.85
2019-03-03T04:44:17.863Z,12.45
2019-03-03T04:47:08.686Z,11.97
2019-03-03T04:50:01.844Z,12.30
2019-03-03T04:52:36.070Z,12.88
2019-03-03T04:55:23.507Z,12.55
2019-03-03T04:58:14.506Z,11.55
2019-03-03T05:00:57.422Z,10.70
2019-03-03T05:03:49.824Z,9.73
2019-03-03T05:06:40.650Z,9.35
2019-03-03T05:09:32.997Z,8.55
2019-03-03T05:12:22.285Z,8.65
2019-03-03T05:14:51.815Z,7.55
2019-03-03T05:17:30.711Z,9.15
2019-03-03T05:20:00.978Z,8.90
2019-03-03T05:22:30.092Z,7.70
2019-03-03T05:25:00.337Z,8.75
2019-03-03T05:27:29.150Z,8.63
2019-03-03T05:29:57.879Z,9.03
2019-03-03T05:32:26.658Z,9.28
2019-03-03T05:34:55.802Z,7.37
2019-03-03T05:37:24.538Z,9.65
2019-03-03T05:39:54.065Z,9.40
2019-03-03T05:42:22.782Z,7.83
2019-03-03T05:44:51.522Z,9.15
2019-03-03T05:47:20.370Z,8.78
2019-03-03T05:49:49.130Z,6.70
2019-03-03T05:52:17.982Z,9.20
2019-03-03T05:54:46.744Z,8.15
2019-03-03T05:57:15.579Z,10.23
2019-03-03T05:59:44.399Z,10.03
2019-03-03T06:02:16.454Z,8.38
2019-03-03T06:04:46.339Z,10.98
2019-03-03T06:07:15.986Z,10.20
2019-03-03T06:09:44.787Z,8.78
2019-03-03T06:12:13.697Z,9.35
2019-03-03T06:14:42.502Z,9.48
2019-03-03T06:17:11.374Z,9.10
2019-03-03T06:19:40.190Z,9.83
2019-03-03T06:22:08.932Z,10.58
2019-03-03T06:24:37.700Z,11.43
2019-03-03T06:27:06.428Z,10.88
2019-03-03T06:29:35.149Z,11.73
2019-03-03T06:32:03.890Z,11.50
2019-03-03T06:34:32.923Z,12.25
2019-03-03T06:37:01.650Z,12.07
2019-03-03T06:39:30.451Z,12.73
2019-03-03T06:41:59.227Z,11.83
2019-03-03T06:44:27.982Z,11.68
2019-03-03T06:46:56.710Z,12.18
2019-03-03T06:49:25.523Z,12.18
2019-03-03T06:51:54.267Z,11.63
2019-03-03T06:54:23.008Z,12.63
2019-03-03T06:56:51.854Z,10.95
2019-03-03T06:59:20.750Z,14.73
2019-03-03T07:01:49.613Z,13.10
2019-03-03T07:04:18.459Z,13.43
2019-03-03T07:06:47.299Z,12.82
2019-03-03T07:09:16.111Z,12.55
2019-03-03T07:11:44.901Z,12.63
2019-03-03T07:14:13.694Z,13.45
2019-03-03T07:16:42.446Z,13.18
2019-03-03T07:19:11.336Z,13.18
2019-03-03T07:21:40.171Z,14.15
2019-03-03T07:24:08.953Z,13.70
2019-03-03T07:26:37.701Z,13.22
2019-03-03T07:29:06.507Z,12.47
2019-03-03T07:31:35.288Z,10.98
2019-03-03T07:34:04.509Z,11.63
2019-03-03T07:36:33.287Z,11.40
2019-03-03T07:39:02.211Z,10.85
2019-03-03T07:41:31.115Z,9.80
2019-03-03T07:43:59.855Z,10.32
2019-03-03T07:46:28.574Z,8.88
2019-03-03T07:48:57.346Z,9.75
2019-03-03T07:51:26.075Z,8.75
2019-03-03T07:53:54.869Z,9.18
2019-03-03T07:56:23.883Z,9.13
2019-03-03T07:58:52.623Z,9.70
2019-03-03T08:01:21.442Z,9.93
2019-03-03T08:03:50.174Z,9.00
2019-03-03T08:06:18.915Z,9.53
2019-03-03T08:08:47.643Z,9.33
2019-03-03T08:11:16.382Z,9.03
2019-03-03T08:13:45.238Z,8.75
2019-03-03T08:16:13.984Z,9.25
2019-03-03T08:18:42.686Z,9.93
2019-03-03T08:21:11.582Z,9.28
2019-03-03T08:23:40.286Z,9.80
2019-03-03T08:26:09.040Z,9.78
2019-03-03T08:28:37.750Z,9.53
2019-03-03T08:31:06.909Z,8.43
2019-03-03T08:33:35.686Z,8.25
2019-03-03T08:36:04.489Z,8.80
2019-03-03T08:38:33.200Z,7.77
2019-03-03T08:41:01.922Z,8.23
2019-03-03T08:43:37.072Z,9.00
2019-03-03T08:46:31.092Z,8.68
2019-03-03T08:49:31.115Z,7.63
2019-03-03T08:52:17.591Z,8.67
2019-03-03T08:55:00.132Z,9.50
2019-03-03T08:57:46.393Z,7.03
2019-03-03T09:00:30.998Z,8.73
2019-03-03T09:03:28.170Z,9.53
2019-03-03T09:06:17.265Z,8.43
2019-03-03T09:08:51.775Z,8.63
2019-03-03T09:11:32.790Z,8.48
2019-03-03T09:14:26.624Z,7.53
2019-03-03T09:17:06.096Z,8.15
2019-03-03T09:19:59.674Z,6.53
2019-03-03T09:22:40.739Z,7.07
2019-03-03T09:25:28.558Z,7.05
2019-03-03T09:28:22.350Z,7.28
2019-03-03T09:30:57.708Z,7.50
2019-03-03T09:33:44.646Z,7.17
2019-03-03T09:36:19.656Z,6.30
2019-03-03T09:39:13.594Z,6.03
2019-03-03T09:41:58.290Z,6.10
2019-03-03T09:44:45.155Z,5.37
2019-03-03T09:47:32.998Z,6.25
2019-03-03T09:50:20.781Z,6.85
2019-03-03T09:53:10.223Z,7.40
2019-03-03T09:55:48.805Z,6.83
2019-03-03T09:58:24.737Z,6.53
2019-03-03T10:01:09.362Z,6.95
2019-03-03T10:03:46.787Z,6.20
2019-03-03T10:06:23.418Z,7.30
2019-03-03T10:09:13.322Z,6.47
2019-03-03T10:11:56.726Z,7.80
2019-03-03T10:14:43.442Z,7.60
2019-03-03T10:17:18.484Z,8.25
2019-03-03T10:20:04.911Z,8.73
2019-03-03T10:22:57.080Z,9.43
2019-03-03T10:25:51.022Z,10.93
2019-03-03T10:28:38.870Z,9.73
2019-03-03T10:31:13.642Z,9.83
2019-03-03T10:34:04.202Z,10.30
2019-03-03T10:36:58.190Z,8.80
2019-03-03T10:39:40.886Z,9.40
2019-03-03T10:42:16.382Z,9.27
2019-03-03T10:44:52.879Z,8.00
2019-03-03T10:47:39.477Z,8.83
2019-03-03T10:50:30.471Z,8.70
2019-03-03T10:53:09.209Z,7.10
2019-03-03T10:55:47.606Z,9.10
2019-03-03T10:58:31.055Z,8.28
2019-03-03T11:01:16.606Z,7.03
2019-03-03T11:04:04.419Z,7.20
2019-03-03T11:06:52.216Z,7.13
2019-03-03T11:09:30.778Z,6.50
2019-03-03T11:12:09.834Z,7.07
2019-03-03T11:14:55.050Z,6.43
2019-03-03T11:17:41.952Z,6.73
2019-03-03T11:20:32.598Z,6.87
2019-03-03T11:23:22.384Z,7.60
2019-03-03T11:26:09.327Z,7.33
2019-03-03T11:28:56.702Z,7.03
2019-03-03T11:31:47.723Z,7.23
2019-03-03T11:34:31.974Z,8.33
2019-03-03T11:37:18.679Z,7.30
2019-03-03T11:40:09.766Z,7.83
2019-03-03T11:42:47.907Z,6.43
2019-03-03T11:45:50.331Z,6.83
2019-03-03T11:48:46.847Z,6.83
2019-03-03T11:51:33.625Z,8.00
2019-03-03T11:54:21.453Z,7.83
2019-03-03T11:57:11.998Z,8.00
2019-03-03T12:00:02.875Z,6.77
2019-03-03T12:03:01.649Z,8.37
2019-03-03T12:05:56.008Z,9.23
2019-03-03T12:09:02.413Z,9.23
2019-03-03T12:11:50.286Z,9.33
2019-03-03T12:14:36.573Z,10.63
2019-03-03T12:17:12.060Z,10.60
2019-03-03T12:20:00.608Z,14.03
2019-03-03T12:22:45.243Z,14.30
2019-03-03T12:25:21.801Z,14.10
2019-03-03T12:28:10.181Z,16.63
2019-03-03T12:30:59.088Z,16.80
2019-03-03T12:33:39.002Z,17.95
2019-03-03T12:36:29.755Z,16.65
2019-03-03T12:39:07.683Z,19.65
2019-03-03T12:42:06.482Z,14.83
2019-03-03T12:45:19.961Z,15.93
2019-03-03T12:47:57.691Z,12.45
2019-03-03T12:51:07.857Z,13.17
2019-03-03T12:53:54.529Z,15.00
2019-03-03T12:56:45.406Z,14.87
2019-03-03T12:59:28.974Z,15.50
2019-03-03T13:02:26.134Z,14.47
2019-03-03T13:05:13.926Z,13.10
2019-03-03T13:08:17.187Z,14.70
2019-03-03T13:11:08.063Z,12.07
2019-03-03T13:13:44.815Z,12.73
2019-03-03T13:16:44.914Z,12.23
2019-03-03T13:19:33.098Z,10.00
2019-03-03T13:22:21.746Z,9.13
2019-03-03T13:25:18.415Z,9.07
2019-03-03T13:28:10.066Z,8.47
2019-03-03T13:30:56.607Z,7.77
2019-03-03T13:33:59.525Z,7.80
2019-03-03T13:36:53.071Z,8.03
2019-03-03T13:39:52.726Z,7.17
2019-03-03T13:42:41.754Z,9.33
2019-03-03T13:45:11.406Z,8.33
2019-03-03T13:47:40.138Z,7.53
2019-03-03T13:50:11.438Z,7.57
2019-03-03T13:52:40.159Z,7.20
2019-03-03T13:55:09.982Z,5.67
2019-03-03T13:57:38.911Z,7.00
2019-03-03T14:00:09.082Z,7.27
2019-03-03T14:02:37.839Z,6.27
2019-03-03T14:05:06.867Z,5.73
2019-03-03T14:07:35.616Z,6.40
2019-03-03T14:10:06.021Z,7.27
2019-03-03T14:12:34.914Z,5.93
2019-03-03T14:15:03.666Z,6.30
2019-03-03T14:17:32.400Z,6.00
2019-03-03T14:20:01.180Z,5.00
2019-03-03T14:22:29.907Z,5.90
2019-03-03T14:24:58.626Z,6.67
2019-03-03T14:27:27.378Z,5.70
2019-03-03T14:29:56.237Z,5.20
2019-03-03T14:32:24.967Z,6.57
2019-03-03T14:34:53.716Z,6.03
2019-03-03T14:37:22.462Z,6.10
2019-03-03T14:39:51.198Z,5.93
2019-03-03T14:42:19.919Z,5.50
2019-03-03T14:44:48.636Z,4.67
2019-03-03T14:47:17.375Z,4.07
2019-03-03T14:49:46.170Z,6.33
2019-03-03T14:52:14.930Z,5.37
2019-03-03T14:54:43.677Z,5.97
2019-03-03T14:57:13.707Z,5.90
2019-03-03T14:59:42.451Z,4.27
2019-03-03T15:02:11.262Z,5.83
2019-03-03T15:04:39.983Z,5.33
2019-03-03T15:07:08.723Z,5.90
2019-03-03T15:09:37.441Z,4.67
2019-03-03T15:12:06.155Z,5.43
2019-03-03T15:14:34.993Z,5.60
2019-03-03T15:17:03.790Z,6.03
2019-03-03T15:19:32.593Z,5.17
2019-03-03T15:22:01.323Z,5.20
2019-03-03T15:24:32.454Z,5.90
2019-03-03T15:27:01.294Z,4.07
2019-03-03T15:29:30.039Z,4.92
2019-03-03T15:31:58.838Z,4.50
2019-03-03T15:34:27.639Z,4.90
2019-03-03T15:36:56.408Z,4.80
2019-03-03T15:39:25.218Z,4.40
2019-03-03T15:41:53.974Z,4.87
2019-03-03T15:44:22.742Z,4.17
2019-03-03T15:46:51.471Z,4.93
2019-03-03T15:49:20.779Z,4.95
2019-03-03T15:51:49.543Z,4.73
2019-03-03T15:54:18.268Z,4.97
2019-03-03T15:56:46.979Z,4.90
2019-03-03T15:59:15.740Z,4.50
2019-03-03T16:01:44.526Z,6.27
2019-03-03T16:04:13.346Z,4.70
2019-03-03T16:06:42.058Z,5.43
2019-03-03T16:09:15.862Z,5.53
2019-03-03T16:11:44.927Z,4.30
2019-03-03T16:14:13.752Z,4.97
2019-03-03T16:16:42.484Z,4.47
2019-03-03T16:19:11.199Z,4.53
2019-03-03T16:21:39.986Z,4.93
2019-03-03T16:24:08.786Z,5.10
2019-03-03T16:26:37.565Z,4.60
2019-03-03T16:29:06.293Z,4.63
2019-03-03T16:31:35.035Z,5.23
2019-03-03T16:34:03.834Z,4.17
2019-03-03T16:36:32.547Z,3.43
2019-03-03T16:39:01.294Z,5.30
2019-03-03T16:41:30.024Z,4.60
2019-03-03T16:43:58.747Z,5.57
2019-03-03T16:46:27.458Z,4.80
2019-03-03T16:48:56.164Z,5.40
2019-03-03T16:51:24.913Z,5.70
2019-03-03T16:53:53.618Z,5.77
2019-03-03T16:56:22.347Z,6.73
2019-03-03T16:58:51.075Z,5.43
2019-03-03T17:01:19.926Z,6.33
2019-03-03T17:03:50.730Z,6.20
2019-03-03T17:06:19.559Z,5.83
2019-03-03T17:08:48.270Z,6.27
2019-03-03T17:11:16.998Z,6.67
2019-03-03T17:13:45.730Z,4.97
2019-03-03T17:16:14.474Z,4.60
2019-03-03T17:18:43.176Z,5.67
2019-03-03T17:21:11.913Z,3.47
2019-03-03T17:23:40.636Z,4.30
2019-03-03T17:26:09.575Z,4.87
2019-03-03T17:28:38.371Z,5.33
2019-03-03T17:31:07.141Z,5.47
2019-03-03T17:33:37.521Z,5.50
2019-03-03T17:36:07.571Z,4.63
2019-03-03T17:38:36.465Z,5.67
2019-03-03T17:41:05.246Z,6.13
2019-03-03T17:43:36.032Z,4.97
2019-03-03T17:46:04.960Z,6.37
2019-03-03T17:48:33.747Z,6.17
2019-03-03T17:51:02.560Z,5.80
2019-03-03T17:53:31.259Z,5.90
2019-03-03T17:55:59.992Z,6.53
2019-03-03T17:58:28.733Z,5.10
2019-03-03T18:00:57.446Z,5.67
2019-03-03T18:03:26.154Z,4.50
2019-03-03T18:05:54.908Z,5.97
2019-03-03T18:08:23.615Z,6.30
2019-03-03T18:10:52.347Z,4.45
2019-03-03T18:13:21.181Z,6.10
2019-03-03T18:15:49.912Z,5.42
2019-03-03T18:18:18.678Z,5.35
2019-03-03T18:20:47.408Z,4.30
2019-03-03T18:23:16.149Z,5.07
2019-03-03T18:25:44.934Z,5.07
2019-03-03T18:28:13.702Z,5.13
2019-03-03T18:30:42.429Z,5.30
2019-03-03T18:33:11.159Z,5.72
2019-03-03T18:35:39.997Z,5.20
2019-03-03T18:38:08.746Z,5.80
2019-03-03T18:40:37.456Z,6.83
2019-03-03T18:43:06.181Z,5.07
2019-03-03T18:45:35.034Z,4.33
2019-03-03T18:48:03.835Z,5.58
2019-03-03T18:50:32.741Z,6.80
2019-03-03T18:53:01.456Z,5.30
2019-03-03T18:55:30.254Z,5.20
2019-03-03T18:57:59.014Z,4.50
2019-03-03T19:00:29.491Z,5.37
2019-03-03T19:02:58.591Z,4.60
2019-03-03T19:05:27.547Z,4.40
2019-03-03T19:07:56.372Z,4.57
2019-03-03T19:10:25.527Z,5.40
2019-03-03T19:12:54.511Z,7.27
2019-03-03T19:15:23.291Z,5.03
2019-03-03T19:17:52.094Z,4.40
2019-03-03T19:20:20.907Z,6.30
2019-03-03T19:22:49.694Z,4.37
2019-03-03T19:25:18.431Z,5.00
2019-03-03T19:27:47.159Z,5.37
2019-03-03T19:30:18.030Z,4.90
2019-03-03T19:32:48.529Z,4.77
2019-03-03T19:35:17.346Z,4.90
2019-03-03T19:37:46.311Z,3.70
2019-03-03T19:40:15.289Z,4.00
2019-03-03T19:42:44.107Z,5.10
2019-03-03T19:45:19.226Z,4.60
2019-03-03T19:48:08.189Z,4.70
2019-03-03T19:50:38.391Z,3.73
2019-03-03T19:53:07.306Z,3.17
2019-03-03T19:55:36.165Z,3.90
2019-03-03T19:58:05.081Z,3.73
2019-03-03T20:00:36.810Z,3.70
2019-03-03T20:03:05.270Z,4.37
2019-03-03T20:05:34.340Z,4.13
2019-03-03T20:08:03.628Z,4.47
2019-03-03T20:10:32.909Z,4.00
2019-03-03T20:13:01.842Z,3.70
2019-03-03T20:15:30.585Z,3.30
2019-03-03T20:17:59.399Z,4.07
2019-03-03T20:20:28.271Z,3.87
2019-03-03T20:22:57.046Z,4.03
2019-03-03T20:25:25.836Z,3.53
2019-03-03T20:27:54.767Z,4.07
2019-03-03T20:30:23.686Z,2.87
2019-03-03T20:32:52.578Z,3.10
2019-03-03T20:35:22.448Z,3.03
2019-03-03T20:37:51.312Z,4.07
2019-03-03T20:40:20.211Z,3.03
2019-03-03T20:42:49.031Z,3.57
2019-03-03T20:45:20.197Z,3.37
2019-03-03T20:47:49.097Z,2.70
2019-03-03T20:50:19.358Z,2.83
2019-03-03T20:52:48.187Z,3.60
2019-03-03T20:55:18.211Z,3.03
2019-03-03T20:57:47.225Z,3.57
2019-03-03T21:00:18.012Z,3.70
2019-03-03T21:02:47.216Z,3.20
2019-03-03T21:05:15.941Z,3.27
2019-03-03T21:07:51.328Z,3.17
2019-03-03T21:10:17.058Z,4.07
2019-03-03T21:12:45.815Z,3.33
2019-03-03T21:15:14.650Z,3.67
2019-03-03T21:17:43.399Z,2.93
2019-03-03T21:20:14.316Z,3.13
2019-03-03T21:22:43.126Z,2.57
2019-03-03T21:25:12.324Z,3.00
2019-03-03T21:27:41.676Z,3.20
2019-03-03T21:30:16.181Z,3.20
2019-03-03T21:32:44.903Z,2.97
2019-03-03T21:35:14.722Z,3.40
2019-03-03T21:37:43.553Z,3.30
2019-03-03T21:40:13.544Z,3.43
2019-03-03T21:42:42.371Z,3.20
2019-03-03T21:45:12.376Z,2.90
2019-03-03T21:47:41.094Z,3.20
2019-03-03T21:50:11.991Z,3.47
2019-03-03T21:52:40.759Z,3.70
2019-03-03T21:55:09.727Z,3.10
2019-03-03T21:57:38.440Z,3.50
2019-03-03T22:00:39.202Z,3.83
2019-03-03T22:03:07.926Z,3.60
2019-03-03T22:05:36.634Z,3.00
2019-03-03T22:08:05.465Z,3.60
2019-03-03T22:10:34.644Z,2.67
2019-03-03T22:13:11.814Z,3.00
2019-03-03T22:15:40.886Z,3.17
2019-03-03T22:18:09.698Z,2.73
2019-03-03T22:20:38.523Z,3.47
2019-03-03T22:23:07.226Z,3.50
2019-03-03T22:25:35.949Z,2.70
2019-03-03T22:28:04.686Z,2.80
2019-03-03T22:30:33.386Z,2.73
2019-03-03T22:33:02.091Z,3.00
2019-03-03T22:35:30.830Z,2.70
2019-03-03T22:37:59.655Z,2.23
2019-03-03T22:40:28.437Z,2.77
2019-03-03T22:42:57.505Z,2.47
2019-03-03T22:45:26.223Z,3.03
2019-03-03T22:47:54.965Z,2.90
2019-03-03T22:50:23.685Z,2.40
2019-03-03T22:52:53.686Z,2.77
2019-03-03T22:55:22.507Z,2.77
2019-03-03T22:57:51.207Z,2.73
2019-03-03T23:00:56.535Z,2.40
2019-03-03T23:03:56.566Z,2.63
2019-03-03T23:06:39.047Z,2.57
2019-03-03T23:09:51.910Z,2.97
2019-03-03T23:12:45.405Z,3.13
2019-03-03T23:15:26.074Z,2.33
2019-03-03T23:18:21.602Z,2.10
2019-03-03T23:21:15.038Z,3.17
2019-03-03T23:24:24.282Z,2.40
2019-03-03T23:26:53.005Z,3.77
2019-03-03T23:29:21.714Z,2.37
2019-03-03T23:31:50.423Z,2.97
2019-03-03T23:34:19.146Z,2.50
2019-03-03T23:36:48.341Z,3.00
2019-03-03T23:39:17.073Z,2.83
2019-03-03T23:41:58.084Z,2.80
2019-03-03T23:44:26.834Z,2.37
2019-03-03T23:46:55.552Z,2.33
2019-03-03T23:49:24.326Z,2.67
2019-03-03T23:51:53.043Z,2.77
2019-03-03T23:54:21.754Z,2.33
2019-03-03T23:56:50.498Z,2.57
2019-03-03T23:59:20.231Z,2.80
